sensor_id;sensor_type;location;lat;lon;timestamp;pressure;altitude;pressure_sealevel;temperature;humidity
68807;BME280;55800;54.272;18.558;2022-08-01T00:02:08;100655.63;;;13.19;53.25
68807;BME280;55800;54.272;18.558;2022-08-01T00:04:38;100656.69;;;13.15;53.26
68807;BME280;55800;54.272;18.558;2022-08-01T00:07:08;100656.00;;;13.11;52.97
68807;BME280;55800;54.272;18.558;2022-08-01T00:09:37;100654.34;;;13.09;53.08
68807;BME280;55800;54.272;18.558;2022-08-01T00:12:06;100647.31;;;13.06;53.20
68807;BME280;55800;54.272;18.558;2022-08-01T00:14:36;100651.94;;;13.03;53.15
68807;BME280;55800;54.272;18.558;2022-08-01T00:17:04;100649.34;;;13.01;53.06
68807;BME280;55800;54.272;18.558;2022-08-01T00:19:34;100645.00;;;12.99;53.10
68807;BME280;55800;54.272;18.558;2022-08-01T00:22:03;100645.13;;;12.96;52.94
68807;BME280;55800;54.272;18.558;2022-08-01T00:24:33;100633.69;;;12.92;52.88
68807;BME280;55800;54.272;18.558;2022-08-01T00:27:02;100640.09;;;12.90;52.98
68807;BME280;55800;54.272;18.558;2022-08-01T00:29:31;100636.63;;;12.88;53.02
68807;BME280;55800;54.272;18.558;2022-08-01T00:32:20;100638.50;;;12.86;53.01
68807;BME280;55800;54.272;18.558;2022-08-01T00:34:49;100633.31;;;12.83;53.29
68807;BME280;55800;54.272;18.558;2022-08-01T00:37:18;100632.44;;;12.82;53.35
68807;BME280;55800;54.272;18.558;2022-08-01T00:39:48;100633.47;;;12.80;53.44
68807;BME280;55800;54.272;18.558;2022-08-01T00:42:17;100634.41;;;12.79;53.50
68807;BME280;55800;54.272;18.558;2022-08-01T00:44:45;100623.75;;;12.77;53.45
68807;BME280;55800;54.272;18.558;2022-08-01T00:47:14;100622.97;;;12.75;53.62
68807;BME280;55800;54.272;18.558;2022-08-01T00:49:43;100624.84;;;12.73;53.48
68807;BME280;55800;54.272;18.558;2022-08-01T00:52:12;100620.50;;;12.71;53.33
68807;BME280;55800;54.272;18.558;2022-08-01T00:54:41;100625.94;;;12.69;53.32
68807;BME280;55800;54.272;18.558;2022-08-01T00:57:12;100624.19;;;12.68;53.38
68807;BME280;55800;54.272;18.558;2022-08-01T00:59:41;100621.59;;;12.67;53.59
68807;BME280;55800;54.272;18.558;2022-08-01T01:02:10;100623.50;;;12.65;53.61
68807;BME280;55800;54.272;18.558;2022-08-01T01:04:42;100625.38;;;12.63;53.64
68807;BME280;55800;54.272;18.558;2022-08-01T01:07:12;100619.22;;;12.61;53.63
68807;BME280;55800;54.272;18.558;2022-08-01T01:09:46;100630.94;;;12.60;53.76
68807;BME280;55800;54.272;18.558;2022-08-01T01:12:22;100617.56;;;12.58;53.72
68807;BME280;55800;54.272;18.558;2022-08-01T01:14:55;100618.44;;;12.59;54.20
68807;BME280;55800;54.272;18.558;2022-08-01T01:17:27;100622.06;;;12.57;54.35
68807;BME280;55800;54.272;18.558;2022-08-01T01:20:17;100620.34;;;12.57;54.49
68807;BME280;55800;54.272;18.558;2022-08-01T01:22:50;100632.00;;;12.55;54.40
68807;BME280;55800;54.272;18.558;2022-08-01T01:25:25;100629.31;;;12.55;54.57
68807;BME280;55800;54.272;18.558;2022-08-01T01:28:02;100626.63;;;12.55;54.85
68807;BME280;55800;54.272;18.558;2022-08-01T01:30:33;100623.03;;;12.57;55.03
68807;BME280;55800;54.272;18.558;2022-08-01T01:33:03;100620.25;;;12.58;55.40
68807;BME280;55800;54.272;18.558;2022-08-01T01:35:35;100615.75;;;12.59;55.64
68807;BME280;55800;54.272;18.558;2022-08-01T01:38:07;100607.72;;;12.59;55.66
68807;BME280;55800;54.272;18.558;2022-08-01T01:40:37;100608.59;;;12.59;55.84
68807;BME280;55800;54.272;18.558;2022-08-01T01:43:07;100614.88;;;12.58;55.77
68807;BME280;55800;54.272;18.558;2022-08-01T01:45:40;100611.41;;;12.56;55.67
68807;BME280;55800;54.272;18.558;2022-08-01T01:48:10;100607.84;;;12.55;55.60
68807;BME280;55800;54.272;18.558;2022-08-01T01:50:42;100610.53;;;12.55;55.76
68807;BME280;55800;54.272;18.558;2022-08-01T01:53:12;100612.28;;;12.57;55.97
68807;BME280;55800;54.272;18.558;2022-08-01T01:55:43;100611.31;;;12.57;56.02
68807;BME280;55800;54.272;18.558;2022-08-01T01:58:16;100603.28;;;12.57;56.43
68807;BME280;55800;54.272;18.558;2022-08-01T02:00:48;100607.72;;;12.59;56.46
68807;BME280;55800;54.272;18.558;2022-08-01T02:03:18;100607.72;;;12.59;56.45
68807;BME280;55800;54.272;18.558;2022-08-01T02:05:48;100605.03;;;12.59;56.52
68807;BME280;55800;54.272;18.558;2022-08-01T02:08:19;100604.09;;;12.60;56.72
68807;BME280;55800;54.272;18.558;2022-08-01T02:10:50;100610.31;;;12.60;56.86
68807;BME280;55800;54.272;18.558;2022-08-01T02:13:34;100611.19;;;12.61;56.94
68807;BME280;55800;54.272;18.558;2022-08-01T02:16:06;100612.94;;;12.62;57.13
68807;BME280;55800;54.272;18.558;2022-08-01T02:18:38;100610.25;;;12.62;57.25
68807;BME280;55800;54.272;18.558;2022-08-01T02:21:08;100610.25;;;12.62;57.25
68807;BME280;55800;54.272;18.558;2022-08-01T02:23:39;100604.94;;;12.60;57.44
68807;BME280;55800;54.272;18.558;2022-08-01T02:26:09;100614.84;;;12.60;57.63
68807;BME280;55800;54.272;18.558;2022-08-01T02:28:41;100606.78;;;12.60;57.70
68807;BME280;55800;54.272;18.558;2022-08-01T02:31:14;100606.78;;;12.60;57.80
68807;BME280;55800;54.272;18.558;2022-08-01T02:33:45;100607.72;;;12.59;57.73
68807;BME280;55800;54.272;18.558;2022-08-01T02:36:14;100609.59;;;12.57;57.64
68807;BME280;55800;54.272;18.558;2022-08-01T02:38:59;100601.66;;;12.55;57.61
68807;BME280;55800;54.272;18.558;2022-08-01T02:41:29;100603.47;;;12.54;57.59
68807;BME280;55800;54.272;18.558;2022-08-01T02:43:59;100611.50;;;12.54;57.72
68807;BME280;55800;54.272;18.558;2022-08-01T02:46:31;100605.25;;;12.54;57.77
68807;BME280;55800;54.272;18.558;2022-08-01T02:49:02;100614.19;;;12.54;57.97
68807;BME280;55800;54.272;18.558;2022-08-01T02:51:32;100609.75;;;12.53;57.97
68807;BME280;55800;54.272;18.558;2022-08-01T02:54:03;100610.63;;;12.54;58.01
68807;BME280;55800;54.272;18.558;2022-08-01T02:56:34;100610.63;;;12.54;58.12
68807;BME280;55800;54.272;18.558;2022-08-01T02:59:04;100603.53;;;12.53;58.08
68807;BME280;55800;54.272;18.558;2022-08-01T03:01:35;100612.44;;;12.53;58.20
68807;BME280;55800;54.272;18.558;2022-08-01T03:04:08;100597.31;;;12.52;58.27
68807;BME280;55800;54.272;18.558;2022-08-01T03:06:37;100604.38;;;12.53;58.20
68807;BME280;55800;54.272;18.558;2022-08-01T03:09:11;100606.22;;;12.53;58.24
68807;BME280;55800;54.272;18.558;2022-08-01T03:11:44;100612.38;;;12.55;58.43
68807;BME280;55800;54.272;18.558;2022-08-01T03:14:14;100602.50;;;12.55;58.43
68807;BME280;55800;54.272;18.558;2022-08-01T03:16:44;100608.66;;;12.57;58.36
68807;BME280;55800;54.272;18.558;2022-08-01T03:19:15;100603.22;;;12.59;58.66
68807;BME280;55800;54.272;18.558;2022-08-01T03:21:44;100604.09;;;12.60;58.66
68807;BME280;55800;54.272;18.558;2022-08-01T03:24:13;100604.94;;;12.60;58.74
68807;BME280;55800;54.272;18.558;2022-08-01T03:26:43;100605.81;;;12.61;58.78
68807;BME280;55800;54.272;18.558;2022-08-01T03:29:12;100598.56;;;12.63;58.80
68807;BME280;55800;54.272;18.558;2022-08-01T03:31:44;100599.34;;;12.65;58.77
68807;BME280;55800;54.272;18.558;2022-08-01T03:34:13;100606.38;;;12.67;58.75
68807;BME280;55800;54.272;18.558;2022-08-01T03:36:43;100607.09;;;12.71;58.90
68807;BME280;55800;54.272;18.558;2022-08-01T03:39:16;100608.66;;;12.75;59.21
68807;BME280;55800;54.272;18.558;2022-08-01T03:41:48;100613.75;;;12.81;59.54
68807;BME280;55800;54.272;18.558;2022-08-01T03:44:24;100611.69;;;12.86;59.80
68807;BME280;55800;54.272;18.558;2022-08-01T03:46:59;100617.59;;;12.92;60.08
68807;BME280;55800;54.272;18.558;2022-08-01T03:49:29;100618.00;;;13.02;60.49
68807;BME280;55800;54.272;18.558;2022-08-01T03:52:00;100623.88;;;13.10;60.77
68807;BME280;55800;54.272;18.558;2022-08-01T03:54:31;100622.59;;;13.17;60.77
68807;BME280;55800;54.272;18.558;2022-08-01T03:57:01;100626.59;;;13.25;60.96
68807;BME280;55800;54.272;18.558;2022-08-01T03:59:30;100623.34;;;13.36;61.06
68807;BME280;55800;54.272;18.558;2022-08-01T04:02:01;100623.84;;;13.44;61.20
68807;BME280;55800;54.272;18.558;2022-08-01T04:04:30;100617.00;;;13.54;61.42
68807;BME280;55800;54.272;18.558;2022-08-01T04:06:59;100625.38;;;13.65;61.44
68807;BME280;55800;54.272;18.558;2022-08-01T04:09:31;100615.84;;;13.75;61.86
68807;BME280;55800;54.272;18.558;2022-08-01T04:12:01;100621.50;;;13.86;62.00
68807;BME280;55800;54.272;18.558;2022-08-01T04:14:39;100617.19;;;13.99;62.45
68807;BME280;55800;54.272;18.558;2022-08-01T04:17:09;100611.28;;;14.08;62.74
68807;BME280;55800;54.272;18.558;2022-08-01T04:19:37;100605.28;;;14.19;62.82
68807;BME280;55800;54.272;18.558;2022-08-01T04:22:07;100612.06;;;14.26;62.70
68807;BME280;55800;54.272;18.558;2022-08-01T04:24:37;100614.16;;;14.37;62.76
68807;BME280;55800;54.272;18.558;2022-08-01T04:27:13;100610.09;;;14.45;62.95
68807;BME280;55800;54.272;18.558;2022-08-01T04:30:03;100614.94;;;14.54;62.93
68807;BME280;55800;54.272;18.558;2022-08-01T04:32:35;100610.06;;;14.61;62.75
68807;BME280;55800;54.272;18.558;2022-08-01T04:35:05;100614.13;;;14.68;62.80
68807;BME280;55800;54.272;18.558;2022-08-01T04:37:54;100608.31;;;14.75;62.93
68807;BME280;55800;54.272;18.558;2022-08-01T04:40:24;100615.91;;;14.83;62.93
68807;BME280;55800;54.272;18.558;2022-08-01T04:42:54;100614.59;;;14.90;62.97
68807;BME280;55800;54.272;18.558;2022-08-01T04:45:23;100617.53;;;15.01;63.50
68807;BME280;55800;54.272;18.558;2022-08-01T04:47:53;100611.75;;;15.07;63.08
68807;BME280;55800;54.272;18.558;2022-08-01T04:50:23;100616.78;;;15.13;63.10
68807;BME280;55800;54.272;18.558;2022-08-01T04:52:52;100613.69;;;15.19;62.97
68807;BME280;55800;54.272;18.558;2022-08-01T04:55:21;100623.31;;;15.23;62.47
68807;BME280;55800;54.272;18.558;2022-08-01T04:57:49;100619.59;;;15.26;62.34
68807;BME280;55800;54.272;18.558;2022-08-01T05:00:18;100619.31;;;15.30;61.91
68807;BME280;55800;54.272;18.558;2022-08-01T05:02:47;100625.38;;;15.34;61.89
68807;BME280;55800;54.272;18.558;2022-08-01T05:05:19;100631.34;;;15.39;62.09
68807;BME280;55800;54.272;18.558;2022-08-01T05:07:48;100628.41;;;15.43;62.33
68807;BME280;55800;54.272;18.558;2022-08-01T05:10:17;100631.66;;;15.48;62.05
68807;BME280;55800;54.272;18.558;2022-08-01T05:12:46;100630.63;;;15.51;62.02
68807;BME280;55800;54.272;18.558;2022-08-01T05:15:15;100629.56;;;15.53;62.08
68807;BME280;55800;54.272;18.558;2022-08-01T05:17:43;100633.78;;;15.57;62.05
68807;BME280;55800;54.272;18.558;2022-08-01T05:20:12;100639.00;;;15.60;62.28
68807;BME280;55800;54.272;18.558;2022-08-01T05:22:43;100637.84;;;15.65;62.36
68807;BME280;55800;54.272;18.558;2022-08-01T05:25:12;100640.34;;;15.68;62.22
68807;BME280;55800;54.272;18.558;2022-08-01T05:27:47;100634.78;;;15.71;62.13
68807;BME280;55800;54.272;18.558;2022-08-01T05:30:17;100630.91;;;15.75;62.22
68807;BME280;55800;54.272;18.558;2022-08-01T05:32:46;100636.03;;;15.79;62.08
68807;BME280;55800;54.272;18.558;2022-08-01T05:35:16;100624.97;;;15.84;62.24
68807;BME280;55800;54.272;18.558;2022-08-01T05:37:46;100628.19;;;15.89;62.30
68807;BME280;55800;54.272;18.558;2022-08-01T05:40:15;100623.59;;;15.91;62.15
68807;BME280;55800;54.272;18.558;2022-08-01T05:42:43;100625.13;;;15.95;61.85
68807;BME280;55800;54.272;18.558;2022-08-01T05:45:12;100629.38;;;15.99;61.45
68807;BME280;55800;54.272;18.558;2022-08-01T05:47:41;100627.44;;;16.01;61.52
68807;BME280;55800;54.272;18.558;2022-08-01T05:50:10;100616.25;;;16.07;61.91
68807;BME280;55800;54.272;18.558;2022-08-01T05:52:39;100623.19;;;16.11;61.74
68807;BME280;55800;54.272;18.558;2022-08-01T05:55:09;100626.47;;;16.16;61.73
68807;BME280;55800;54.272;18.558;2022-08-01T05:57:38;100621.63;;;16.21;61.92
68807;BME280;55800;54.272;18.558;2022-08-01T06:00:08;100624.91;;;16.26;61.84
68807;BME280;55800;54.272;18.558;2022-08-01T06:02:40;100620.91;;;16.31;62.12
68807;BME280;55800;54.272;18.558;2022-08-01T06:05:10;100623.31;;;16.36;61.79
68807;BME280;55800;54.272;18.558;2022-08-01T06:07:40;100624.84;;;16.40;61.98
68807;BME280;55800;54.272;18.558;2022-08-01T06:10:10;100626.38;;;16.44;61.85
68807;BME280;55800;54.272;18.558;2022-08-01T06:12:39;100618.84;;;16.49;61.96
68807;BME280;55800;54.272;18.558;2022-08-01T06:15:08;100627.53;;;16.54;61.90
68807;BME280;55800;54.272;18.558;2022-08-01T06:17:37;100626.16;;;16.61;62.17
68807;BME280;55800;54.272;18.558;2022-08-01T06:20:06;100621.34;;;16.66;62.13
68807;BME280;55800;54.272;18.558;2022-08-01T06:22:36;100624.38;;;16.74;62.24
68807;BME280;55800;54.272;18.558;2022-08-01T06:25:05;100621.06;;;16.83;62.25
68807;BME280;55800;54.272;18.558;2022-08-01T06:27:36;100626.59;;;16.94;62.63
68807;BME280;55800;54.272;18.558;2022-08-01T06:30:05;100626.97;;;17.02;62.63
68807;BME280;55800;54.272;18.558;2022-08-01T06:32:35;100619.19;;;17.10;62.46
68807;BME280;55800;54.272;18.558;2022-08-01T06:35:04;100624.91;;;17.18;62.09
68807;BME280;55800;54.272;18.558;2022-08-01T06:37:33;100624.19;;;17.29;62.50
68807;BME280;55800;54.272;18.558;2022-08-01T06:40:02;100624.41;;;17.39;62.16
68807;BME280;55800;54.272;18.558;2022-08-01T06:42:31;100613.94;;;17.47;62.26
68807;BME280;55800;54.272;18.558;2022-08-01T06:45:04;100607.69;;;17.59;61.85
68807;BME280;55800;54.272;18.558;2022-08-01T06:47:33;100615.03;;;17.69;61.73
68807;BME280;55800;54.272;18.558;2022-08-01T06:50:03;100614.25;;;17.80;61.84
68807;BME280;55800;54.272;18.558;2022-08-01T06:52:36;100621.47;;;17.92;61.95
68807;BME280;55800;54.272;18.558;2022-08-01T06:55:05;100612.59;;;18.03;61.77
68807;BME280;55800;54.272;18.558;2022-08-01T06:57:34;100612.59;;;18.15;61.79
68807;BME280;55800;54.272;18.558;2022-08-01T07:00:06;100624.22;;;18.28;61.84
68807;BME280;55800;54.272;18.558;2022-08-01T07:02:39;100619.88;;;18.38;61.60
68807;BME280;55800;54.272;18.558;2022-08-01T07:05:08;100623.53;;;18.50;61.56
68807;BME280;55800;54.272;18.558;2022-08-01T07:07:37;100629.91;;;18.61;61.43
68807;BME280;55800;54.272;18.558;2022-08-01T07:10:06;100623.69;;;18.72;61.30
68807;BME280;55800;54.272;18.558;2022-08-01T07:12:36;100630.13;;;18.82;61.20
68807;BME280;55800;54.272;18.558;2022-08-01T07:15:07;100621.19;;;18.93;61.17
68807;BME280;55800;54.272;18.558;2022-08-01T07:17:37;100628.25;;;19.06;61.19
68807;BME280;55800;54.272;18.558;2022-08-01T07:20:07;100622.97;;;19.16;60.98
68807;BME280;55800;54.272;18.558;2022-08-01T07:22:37;100626.59;;;19.27;60.76
68807;BME280;55800;54.272;18.558;2022-08-01T07:25:07;100627.66;;;19.37;60.66
68807;BME280;55800;54.272;18.558;2022-08-01T07:27:36;100625.81;;;19.49;60.69
68807;BME280;55800;54.272;18.558;2022-08-01T07:30:07;100623.13;;;19.60;60.61
68807;BME280;55800;54.272;18.558;2022-08-01T07:32:38;100614.13;;;19.71;60.54
68807;BME280;55800;54.272;18.558;2022-08-01T07:35:08;100623.16;;;19.82;60.49
68807;BME280;55800;54.272;18.558;2022-08-01T07:37:37;100618.72;;;19.92;60.34
68807;BME280;55800;54.272;18.558;2022-08-01T07:40:16;100619.44;;;20.05;60.46
68807;BME280;55800;54.272;18.558;2022-08-01T07:42:46;100621.28;;;20.16;60.29
68807;BME280;55800;54.272;18.558;2022-08-01T07:45:16;100606.88;;;20.27;60.01
68807;BME280;55800;54.272;18.558;2022-08-01T07:47:45;100611.28;;;20.39;59.76
68807;BME280;55800;54.272;18.558;2022-08-01T07:50:14;100610.53;;;20.48;59.82
68807;BME280;55800;54.272;18.558;2022-08-01T07:52:43;100615.22;;;20.57;59.81
68807;BME280;55800;54.272;18.558;2022-08-01T07:55:13;100611.84;;;20.64;59.10
68807;BME280;55800;54.272;18.558;2022-08-01T07:57:43;100611.94;;;20.74;58.31
68807;BME280;55800;54.272;18.558;2022-08-01T08:00:12;100620.56;;;20.79;57.40
68807;BME280;55800;54.272;18.558;2022-08-01T08:02:43;100614.50;;;20.86;58.04
68807;BME280;55800;54.272;18.558;2022-08-01T08:05:12;100613.81;;;20.94;57.86
68807;BME280;55800;54.272;18.558;2022-08-01T08:07:40;100612.31;;;21.01;58.29
68807;BME280;55800;54.272;18.558;2022-08-01T08:10:09;100610.72;;;21.10;57.82
68807;BME280;55800;54.272;18.558;2022-08-01T08:12:38;100613.50;;;21.19;57.69
68807;BME280;55800;54.272;18.558;2022-08-01T08:15:07;100610.97;;;21.27;57.79
68807;BME280;55800;54.272;18.558;2022-08-01T08:17:36;100615.63;;;21.36;57.60
68807;BME280;55800;54.272;18.558;2022-08-01T08:20:07;100615.81;;;21.44;57.22
68807;BME280;55800;54.272;18.558;2022-08-01T08:22:37;100617.00;;;21.51;56.39
68807;BME280;55800;54.272;18.558;2022-08-01T08:25:06;100613.03;;;21.55;55.38
68807;BME280;55800;54.272;18.558;2022-08-01T08:27:35;100615.50;;;21.58;55.87
68807;BME280;55800;54.272;18.558;2022-08-01T08:30:05;100621.50;;;21.62;54.89
68807;BME280;55800;54.272;18.558;2022-08-01T08:32:37;100614.38;;;21.61;55.04
68807;BME280;55800;54.272;18.558;2022-08-01T08:35:07;100618.66;;;21.63;54.53
68807;BME280;55800;54.272;18.558;2022-08-01T08:37:39;100624.09;;;21.63;55.02
68807;BME280;55800;54.272;18.558;2022-08-01T08:40:14;100623.13;;;21.64;54.90
68807;BME280;55800;54.272;18.558;2022-08-01T08:42:43;100620.09;;;21.67;54.39
68807;BME280;55800;54.272;18.558;2022-08-01T08:45:13;100615.38;;;21.69;54.81
68807;BME280;55800;54.272;18.558;2022-08-01T08:47:42;100616.88;;;21.73;54.09
68807;BME280;55800;54.272;18.558;2022-08-01T08:50:15;100613.00;;;21.76;54.03
68807;BME280;55800;54.272;18.558;2022-08-01T08:52:44;100609.88;;;21.81;53.96
68807;BME280;55800;54.272;18.558;2022-08-01T08:55:16;100617.66;;;21.85;53.89
68807;BME280;55800;54.272;18.558;2022-08-01T08:57:46;100614.53;;;21.90;53.51
68807;BME280;55800;54.272;18.558;2022-08-01T09:00:15;100612.41;;;21.93;53.67
68807;BME280;55800;54.272;18.558;2022-08-01T09:02:45;100624.63;;;21.99;53.15
68807;BME280;55800;54.272;18.558;2022-08-01T09:05:17;100616.88;;;22.04;52.92
68807;BME280;55800;54.272;18.558;2022-08-01T09:08:06;100613.59;;;22.10;53.17
68807;BME280;55800;54.272;18.558;2022-08-01T09:10:35;100613.09;;;22.16;53.45
68807;BME280;55800;54.272;18.558;2022-08-01T09:13:05;100617.97;;;22.22;53.55
68807;BME280;55800;54.272;18.558;2022-08-01T09:15:43;100614.69;;;22.28;53.45
68807;BME280;55800;54.272;18.558;2022-08-01T09:18:29;100615.88;;;22.35;52.35
68807;BME280;55800;54.272;18.558;2022-08-01T09:21:13;100617.00;;;22.42;51.90
68807;BME280;55800;54.272;18.558;2022-08-01T09:23:43;100622.91;;;22.47;51.62
68807;BME280;55800;54.272;18.558;2022-08-01T09:26:22;100630.53;;;22.53;51.26
68807;BME280;55800;54.272;18.558;2022-08-01T09:28:57;100631.97;;;22.57;51.96
68807;BME280;55800;54.272;18.558;2022-08-01T09:31:27;100623.13;;;22.65;52.43
68807;BME280;55800;54.272;18.558;2022-08-01T09:34:05;100624.88;;;22.75;52.69
68807;BME280;55800;54.272;18.558;2022-08-01T09:36:46;100629.44;;;22.84;53.07
68807;BME280;55800;54.272;18.558;2022-08-01T09:39:21;100623.72;;;22.97;53.56
68807;BME280;55800;54.272;18.558;2022-08-01T09:41:51;100622.59;;;23.09;53.20
68807;BME280;55800;54.272;18.558;2022-08-01T09:44:36;100615.97;;;23.21;53.16
68807;BME280;55800;54.272;18.558;2022-08-01T09:47:12;100621.00;;;23.35;53.63
68807;BME280;55800;54.272;18.558;2022-08-01T09:49:42;100619.16;;;23.45;53.38
68807;BME280;55800;54.272;18.558;2022-08-01T09:52:20;100609.06;;;23.55;53.01
68807;BME280;55800;54.272;18.558;2022-08-01T09:54:53;100616.22;;;23.66;53.07
68807;BME280;55800;54.272;18.558;2022-08-01T09:57:22;100620.81;;;23.75;52.40
68807;BME280;55800;54.272;18.558;2022-08-01T09:59:52;100619.91;;;23.84;51.63
68807;BME280;55800;54.272;18.558;2022-08-01T10:02:28;100621.91;;;23.91;51.46
68807;BME280;55800;54.272;18.558;2022-08-01T10:04:58;100624.59;;;24.01;51.11
68807;BME280;55800;54.272;18.558;2022-08-01T10:07:35;100624.44;;;24.12;51.61
68807;BME280;55800;54.272;18.558;2022-08-01T10:10:11;100621.50;;;24.23;51.99
68807;BME280;55800;54.272;18.558;2022-08-01T10:12:41;100624.88;;;24.35;51.91
68807;BME280;55800;54.272;18.558;2022-08-01T10:15:13;100617.66;;;24.43;51.87
68807;BME280;55800;54.272;18.558;2022-08-01T10:17:46;100623.06;;;24.53;52.27
68807;BME280;55800;54.272;18.558;2022-08-01T10:20:24;100619.09;;;24.65;51.75
68807;BME280;55800;54.272;18.558;2022-08-01T10:22:59;100621.09;;;24.72;51.00
68807;BME280;55800;54.272;18.558;2022-08-01T10:25:34;100616.03;;;24.77;50.14
68807;BME280;55800;54.272;18.558;2022-08-01T10:28:14;100623.47;;;24.85;50.90
68807;BME280;55800;54.272;18.558;2022-08-01T10:30:50;100625.13;;;24.96;50.71
68807;BME280;55800;54.272;18.558;2022-08-01T10:33:21;100627.94;;;25.04;49.97
68807;BME280;55800;54.272;18.558;2022-08-01T10:36:10;100621.53;;;25.13;50.14
68807;BME280;55800;54.272;18.558;2022-08-01T10:38:41;100622.13;;;25.24;50.29
68807;BME280;55800;54.272;18.558;2022-08-01T10:41:10;100617.28;;;25.36;50.79
68807;BME280;55800;54.272;18.558;2022-08-01T10:43:42;100621.81;;;25.45;49.85
68807;BME280;55800;54.272;18.558;2022-08-01T10:46:13;100616.09;;;25.56;50.78
68807;BME280;55800;54.272;18.558;2022-08-01T10:48:45;100618.72;;;25.66;50.26
68807;BME280;55800;54.272;18.558;2022-08-01T10:51:18;100616.03;;;25.74;50.50
68807;BME280;55800;54.272;18.558;2022-08-01T10:53:50;100613.53;;;25.80;51.01
68807;BME280;55800;54.272;18.558;2022-08-01T10:56:21;100609.97;;;25.88;51.21
68807;BME280;55800;54.272;18.558;2022-08-01T10:59:00;100620.78;;;25.89;49.54
68807;BME280;55800;54.272;18.558;2022-08-01T11:01:37;100614.66;;;25.95;50.10
68807;BME280;55800;54.272;18.558;2022-08-01T11:04:13;100606.78;;;26.00;50.24
68807;BME280;55800;54.272;18.558;2022-08-01T11:06:54;100610.75;;;26.06;49.93
68807;BME280;55800;54.272;18.558;2022-08-01T11:09:41;100620.22;;;26.11;49.59
68807;BME280;55800;54.272;18.558;2022-08-01T11:12:17;100619.75;;;26.16;49.03
68807;BME280;55800;54.272;18.558;2022-08-01T11:17:40;100623.00;;;26.19;47.63
68807;BME280;55800;54.272;18.558;2022-08-01T11:20:17;100622.88;;;26.21;47.80
68807;BME280;55800;54.272;18.558;2022-08-01T11:28:38;100618.09;;;26.31;49.20
68807;BME280;55800;54.272;18.558;2022-08-01T11:31:29;100617.63;;;26.36;49.29
68807;BME280;55800;54.272;18.558;2022-08-01T11:34:04;100616.06;;;26.41;49.75
68807;BME280;55800;54.272;18.558;2022-08-01T11:36:34;100625.19;;;26.50;49.83
68807;BME280;55800;54.272;18.558;2022-08-01T11:39:23;100619.59;;;26.59;50.43
68807;BME280;55800;54.272;18.558;2022-08-01T11:41:52;100622.34;;;26.67;50.03
68807;BME280;55800;54.272;18.558;2022-08-01T11:44:23;100625.13;;;26.75;50.32
68807;BME280;55800;54.272;18.558;2022-08-01T11:46:58;100626.03;;;26.84;50.78
68807;BME280;55800;54.272;18.558;2022-08-01T11:49:29;100628.09;;;26.90;50.63
68807;BME280;55800;54.272;18.558;2022-08-01T11:52:01;100636.31;;;26.98;50.93
68807;BME280;55800;54.272;18.558;2022-08-01T11:54:32;100626.72;;;27.02;50.64
68807;BME280;55800;54.272;18.558;2022-08-01T11:57:03;100627.25;;;27.05;50.56
68807;BME280;55800;54.272;18.558;2022-08-01T11:59:39;100627.78;;;27.09;50.63
68807;BME280;55800;54.272;18.558;2022-08-01T12:02:38;100631.19;;;27.11;50.72
68807;BME280;55800;54.272;18.558;2022-08-01T12:05:09;100628.28;;;27.13;50.58
68807;BME280;55800;54.272;18.558;2022-08-01T12:07:41;100634.31;;;27.16;50.64
68807;BME280;55800;54.272;18.558;2022-08-01T12:10:11;100626.75;;;27.18;50.58
68807;BME280;55800;54.272;18.558;2022-08-01T12:12:42;100630.19;;;27.20;50.63
68807;BME280;55800;54.272;18.558;2022-08-01T12:15:13;100632.56;;;27.23;50.69
68807;BME280;55800;54.272;18.558;2022-08-01T12:17:42;100627.44;;;27.28;50.47
68807;BME280;55800;54.272;18.558;2022-08-01T12:20:26;100626.75;;;27.34;50.29
68807;BME280;55800;54.272;18.558;2022-08-01T12:23:01;100624.22;;;27.41;50.39
68807;BME280;55800;54.272;18.558;2022-08-01T12:25:31;100625.94;;;27.50;50.57
68807;BME280;55800;54.272;18.558;2022-08-01T12:28:00;100622.31;;;27.57;50.06
68807;BME280;55800;54.272;18.558;2022-08-01T12:30:31;100623.84;;;27.68;50.26
68807;BME280;55800;54.272;18.558;2022-08-01T12:33:03;100621.94;;;27.76;50.43
68807;BME280;55800;54.272;18.558;2022-08-01T12:35:32;100631.22;;;27.83;50.36
68807;BME280;55800;54.272;18.558;2022-08-01T12:38:04;100625.00;;;27.90;50.68
68807;BME280;55800;54.272;18.558;2022-08-01T12:40:34;100624.69;;;27.93;50.40
68807;BME280;55800;54.272;18.558;2022-08-01T12:43:09;100628.09;;;27.95;50.73
68807;BME280;55800;54.272;18.558;2022-08-01T12:45:57;100638.06;;;27.96;50.47
68807;BME280;55800;54.272;18.558;2022-08-01T12:48:28;100624.31;;;27.96;50.26
68807;BME280;55800;54.272;18.558;2022-08-01T12:50:58;100622.44;;;27.96;50.46
68807;BME280;55800;54.272;18.558;2022-08-01T12:53:32;100636.03;;;27.98;50.16
68807;BME280;55800;54.272;18.558;2022-08-01T12:56:08;100641.38;;;27.99;50.24
68807;BME280;55800;54.272;18.558;2022-08-01T12:58:39;100638.44;;;28.01;49.92
68807;BME280;55800;54.272;18.558;2022-08-01T13:01:10;100635.31;;;28.04;50.05
68807;BME280;55800;54.272;18.558;2022-08-01T13:03:41;100640.47;;;28.07;49.82
68807;BME280;55800;54.272;18.558;2022-08-01T13:06:27;100642.19;;;28.08;50.30
68807;BME280;55800;54.272;18.558;2022-08-01T13:09:04;100639.25;;;28.09;49.91
68807;BME280;55800;54.272;18.558;2022-08-01T13:11:33;100646.66;;;28.09;49.91
68807;BME280;55800;54.272;18.558;2022-08-01T13:14:02;100646.66;;;28.09;49.93